createdAt,value
2019-05-21T00:04:40.534Z,45
2019-05-21T00:14:43.873Z,44
2019-05-21T00:24:47.489Z,43
2019-05-21T00:34:50.967Z,43
2019-05-21T00:44:54.356Z,44
2019-05-21T00:54:57.711Z,42
2019-05-21T01:05:01.911Z,43
2019-05-21T01:15:05.243Z,43
2019-05-21T01:25:08.581Z,43
2019-05-21T01:35:17.846Z,45
2019-05-21T01:45:21.207Z,43
2019-05-21T01:55:24.541Z,44
2019-05-21T02:05:33.861Z,44
2019-05-21T02:15:37.255Z,46
2019-05-21T02:25:40.651Z,45
2019-05-21T02:35:55.370Z,46
2019-05-21T02:45:58.783Z,45
2019-05-21T02:56:02.138Z,44
2019-05-21T03:06:15.361Z,44
2019-05-21T03:16:18.844Z,42
2019-05-21T03:26:22.228Z,40
2019-05-21T03:36:34.831Z,42
2019-05-21T03:46:38.261Z,41
2019-05-21T03:56:41.610Z,41
2019-05-21T04:06:52.933Z,41
2019-05-21T04:16:56.465Z,41
2019-05-21T04:26:59.871Z,42
2019-05-21T04:37:16.555Z,41
2019-05-21T04:47:21.064Z,42
2019-05-21T04:57:24.504Z,41
2019-05-21T05:07:29.209Z,43
2019-05-21T05:17:32.620Z,43
2019-05-21T05:27:36.021Z,43
2019-05-21T05:37:49.295Z,47
2019-05-21T05:47:52.701Z,48
2019-05-21T05:57:56.023Z,50
2019-05-21T06:08:00.884Z,50
2019-05-21T06:18:04.317Z,51
2019-05-21T06:28:07.810Z,51
2019-05-21T06:38:18.709Z,52
2019-05-21T06:48:22.054Z,52
2019-05-21T06:58:25.383Z,53
2019-05-21T07:08:35.546Z,54
2019-05-21T07:18:41.896Z,54
2019-05-21T07:28:45.555Z,55
2019-05-21T07:38:54.670Z,68
2019-05-21T07:48:58.110Z,67
2019-05-21T07:59:02.078Z,64
2019-05-21T08:09:15.227Z,66
2019-05-21T08:19:18.625Z,65
2019-05-21T08:29:21.958Z,63
2019-05-21T08:39:29.616Z,63
2019-05-21T08:49:32.966Z,64
2019-05-21T08:59:36.332Z,63
2019-05-21T09:09:52.354Z,65
2019-05-21T09:19:55.731Z,71
2019-05-21T09:29:59.085Z,70
2019-05-21T09:40:02.818Z,69
2019-05-21T09:50:06.906Z,67
2019-05-21T10:00:10.545Z,63
2019-05-21T10:10:13.879Z,64
2019-05-21T10:20:17.216Z,36
2019-05-21T10:30:20.531Z,41
2019-05-21T10:40:23.860Z,44
2019-05-21T10:50:27.212Z,46
2019-05-21T11:00:30.559Z,47
2019-05-21T11:10:33.895Z,48
2019-05-21T11:20:37.247Z,47
2019-05-21T11:30:40.584Z,47
2019-05-21T11:40:44.191Z,50
2019-05-21T11:50:54.058Z,53
2019-05-21T12:00:57.461Z,52
2019-05-21T12:11:00.783Z,52
2019-05-21T12:21:04.137Z,50
2019-05-21T12:31:07.517Z,55
2019-05-21T12:41:14.327Z,59
2019-05-21T12:51:17.681Z,61
2019-05-21T13:01:21.021Z,64
2019-05-21T13:11:24.378Z,41
2019-05-21T13:21:27.713Z,52
2019-05-21T13:31:31.053Z,55
2019-05-21T13:41:34.449Z,58
2019-05-21T13:51:37.890Z,63
2019-05-21T14:01:42.025Z,62
2019-05-21T14:11:45.357Z,60
2019-05-21T14:21:48.719Z,60
2019-05-21T14:31:52.050Z,59
2019-05-21T14:41:55.426Z,65
2019-05-21T14:51:58.815Z,57
2019-05-21T15:02:02.147Z,59
2019-05-21T15:12:05.487Z,61
2019-05-21T15:22:08.841Z,57
2019-05-21T15:32:12.179Z,57
2019-05-21T15:42:15.525Z,51
2019-05-21T15:52:18.876Z,54
2019-05-21T16:02:22.249Z,55
2019-05-21T16:12:25.613Z,56
2019-05-21T16:22:29.070Z,57
2019-05-21T16:32:32.520Z,64
2019-05-21T16:42:35.871Z,65
2019-05-21T16:52:39.306Z,65
2019-05-21T17:02:42.674Z,63
2019-05-21T17:12:46.026Z,64
2019-05-21T17:22:49.391Z,64
2019-05-21T17:32:52.730Z,64
2019-05-21T17:42:56.051Z,63
2019-05-21T17:52:59.391Z,64
2019-05-21T18:03:02.850Z,63
2019-05-21T18:13:06.198Z,64
2019-05-21T18:23:09.516Z,64
2019-05-21T18:33:12.864Z,63
2019-05-21T18:43:16.230Z,64
2019-05-21T18:53:19.574Z,63
2019-05-21T19:03:26.366Z,63
2019-05-21T19:13:29.763Z,63
2019-05-21T19:23:33.083Z,62
2019-05-21T19:33:36.427Z,62
2019-05-21T19:43:39.745Z,62
2019-05-21T19:53:44.071Z,62
2019-05-21T20:03:47.410Z,62
2019-05-21T20:13:50.760Z,62
2019-05-21T20:23:54.093Z,61
2019-05-21T20:33:57.445Z,62
2019-05-21T20:44:00.775Z,62
2019-05-21T20:54:04.106Z,61
2019-05-21T21:04:07.458Z,60
2019-05-21T21:14:18.750Z,61
2019-05-21T21:24:22.092Z,60
2019-05-21T21:34:25.472Z,60
2019-05-21T21:44:34.675Z,60
2019-05-21T21:54:38.063Z,59
2019-05-21T22:04:41.564Z,60
2019-05-21T22:14:52.699Z,60
2019-05-21T22:24:56.088Z,60
2019-05-21T22:34:59.463Z,61
2019-05-21T22:45:09.350Z,60
2019-05-21T22:55:12.729Z,60
2019-05-21T23:05:16.043Z,60
2019-05-21T23:15:25.926Z,60
2019-05-21T23:25:29.277Z,60
2019-05-21T23:35:32.636Z,59
2019-05-21T23:45:35.982Z,60
2019-05-21T23:55:39.331Z,59
